createdAt,value
2022-08-09T00:01:10.460Z,95337.06
2022-08-09T00:04:05.874Z,95317.59
2022-08-09T00:06:27.876Z,95327.00
2022-08-09T00:08:57.511Z,95342.63
2022-08-09T00:11:27.720Z,95332.06
2022-08-09T00:14:11.489Z,95331.34
2022-08-09T00:16:44.727Z,95347.09
2022-08-09T00:19:14.248Z,95336.91
2022-08-09T00:21:56.247Z,95325.69
2022-08-09T00:24:24.596Z,95334.19
2022-08-09T00:26:51.665Z,95344.41
2022-08-09T00:29:39.875Z,95335.88
2022-08-09T00:32:06.074Z,95313.00
2022-08-09T00:34:32.769Z,95334.53
2022-08-09T00:37:00.849Z,95340.69
2022-08-09T00:40:13.927Z,95346.72
2022-08-09T00:44:18.856Z,95334.09
2022-08-09T00:45:03.542Z,95316.50
2022-08-09T00:47:42.259Z,95337.16
2022-08-09T00:50:14.761Z,95339.81
2022-08-09T00:52:41.880Z,95329.09
2022-08-09T00:55:09.144Z,95332.56
2022-08-09T00:57:43.512Z,95333.59
2022-08-09T01:00:21.625Z,95337.16
2022-08-09T01:02:52.478Z,95339.00
2022-08-09T01:05:51.644Z,95342.91
2022-08-09T01:08:29.215Z,95332.28
2022-08-09T01:11:15.873Z,95334.66
2022-08-09T01:13:59.258Z,95333.09
2022-08-09T01:16:40.731Z,95338.94
2022-08-09T01:19:43.000Z,95344.56
2022-08-09T01:22:24.902Z,95337.59
2022-08-09T01:25:07.422Z,95338.41
2022-08-09T01:27:36.177Z,95335.34
2022-08-09T01:30:07.162Z,95323.59
2022-08-09T01:32:43.752Z,95327.91
2022-08-09T01:35:37.302Z,95327.16
2022-08-09T01:38:15.098Z,95339.72
2022-08-09T01:40:52.360Z,95310.13
2022-08-09T01:43:19.565Z,95338.00
2022-08-09T01:45:52.146Z,95340.81
2022-08-09T01:48:19.565Z,95337.88
2022-08-09T01:50:55.168Z,95343.47
2022-08-09T01:53:29.318Z,95341.63
2022-08-09T01:56:09.933Z,95350.28
2022-08-09T01:58:37.684Z,95348.44
2022-08-09T02:01:05.579Z,95349.47
2022-08-09T02:03:36.806Z,95347.09
2022-08-09T02:06:06.911Z,95341.69
2022-08-09T02:08:57.558Z,95343.81
2022-08-09T02:11:42.687Z,95340.41
2022-08-09T02:14:15.109Z,95345.28
2022-08-09T02:17:15.062Z,95346.22
2022-08-09T02:19:43.088Z,95348.16
2022-08-09T02:22:34.926Z,95351.09
2022-08-09T02:25:08.009Z,95352.31
2022-08-09T02:27:57.293Z,95332.38
2022-08-09T02:30:26.325Z,95343.31
2022-08-09T02:32:54.927Z,95355.34
2022-08-09T02:36:01.653Z,95349.59
2022-08-09T02:38:21.746Z,95342.16
2022-08-09T02:40:49.106Z,95356.22
2022-08-09T02:43:21.056Z,95350.19
2022-08-09T02:45:49.718Z,95355.97
2022-08-09T02:48:30.492Z,95340.16
2022-08-09T02:51:02.578Z,95358.50
2022-08-09T02:53:53.089Z,95322.69
2022-08-09T02:56:28.152Z,95343.53
2022-08-09T02:58:55.986Z,95344.75
2022-08-09T03:01:29.334Z,95346.16
2022-08-09T03:04:17.806Z,95348.66
2022-08-09T03:06:49.131Z,95359.25
2022-08-09T03:09:17.371Z,95355.25
2022-08-09T03:12:05.765Z,95356.91
2022-08-09T03:14:32.057Z,95348.25
2022-08-09T03:17:01.790Z,95349.25
2022-08-09T03:19:58.471Z,95346.44
2022-08-09T03:22:25.005Z,95354.09
2022-08-09T03:25:00.269Z,95349.88
2022-08-09T03:27:44.771Z,95345.63
2022-08-09T03:30:12.439Z,95341.59
2022-08-09T03:32:40.460Z,95358.09
2022-08-09T03:35:15.048Z,95345.41
2022-08-09T03:37:55.673Z,95350.56
2022-08-09T03:40:25.035Z,95357.03
2022-08-09T03:42:51.578Z,95356.81
2022-08-09T03:46:04.164Z,95356.34
2022-08-09T03:48:05.248Z,95365.97
2022-08-09T03:50:35.143Z,95370.56
2022-08-09T03:53:05.192Z,95370.34
2022-08-09T03:55:36.233Z,95364.38
2022-08-09T03:58:16.280Z,95371.16
2022-08-09T04:00:45.489Z,95361.28
2022-08-09T04:03:19.862Z,95362.22
2022-08-09T04:05:58.840Z,95361.50
2022-08-09T04:08:29.053Z,95356.00
2022-08-09T04:10:56.270Z,95352.19
2022-08-09T04:13:44.854Z,95363.22
2022-08-09T04:16:20.007Z,95360.63
2022-08-09T04:18:47.773Z,95373.38
2022-08-09T04:21:15.870Z,95361.34
2022-08-09T04:23:54.081Z,95364.75
2022-08-09T04:26:23.956Z,95358.81
2022-08-09T04:28:50.480Z,95369.31
2022-08-09T04:31:17.226Z,95358.81
2022-08-09T04:33:44.012Z,95371.94
2022-08-09T04:36:19.517Z,95358.31
2022-08-09T04:38:48.058Z,95382.06
2022-08-09T04:41:14.539Z,95362.16
2022-08-09T04:43:46.591Z,95375.16
2022-08-09T04:46:38.071Z,95385.50
2022-08-09T04:49:15.122Z,95367.56
2022-08-09T04:51:41.611Z,95375.38
2022-08-09T04:54:08.121Z,95378.31
2022-08-09T04:56:38.734Z,95380.22
2022-08-09T04:59:12.934Z,95381.88
2022-08-09T05:01:41.896Z,95371.59
2022-08-09T05:04:08.524Z,95389.28
2022-08-09T05:06:35.878Z,95385.19
2022-08-09T05:09:02.625Z,95389.06
2022-08-09T05:11:30.565Z,95403.44
2022-08-09T05:13:59.285Z,95404.41
2022-08-09T05:16:31.751Z,95409.44
2022-08-09T05:19:00.262Z,95408.47
2022-08-09T05:21:30.072Z,95407.25
2022-08-09T05:24:03.896Z,95407.25
2022-08-09T05:26:35.321Z,95406.09
2022-08-09T05:29:21.721Z,95401.28
2022-08-09T05:31:57.170Z,95410.84
2022-08-09T05:34:32.529Z,95404.34
2022-08-09T05:37:04.950Z,95416.56
2022-08-09T05:39:36.038Z,95418.25
2022-08-09T05:42:10.224Z,95407.50
2022-08-09T05:44:44.673Z,95407.41
2022-08-09T05:47:14.255Z,95405.94
2022-08-09T05:50:35.033Z,95418.41
2022-08-09T05:52:27.571Z,95400.94
2022-08-09T05:54:57.268Z,95414.00
2022-08-09T05:57:55.841Z,95417.81
2022-08-09T06:00:16.650Z,95416.63
2022-08-09T06:02:46.667Z,95410.13
2022-08-09T06:05:13.649Z,95419.91
2022-08-09T06:07:40.229Z,95420.13
2022-08-09T06:10:15.936Z,95405.25
2022-08-09T06:12:44.568Z,95429.94
2022-08-09T06:15:17.341Z,95421.47
2022-08-09T06:17:43.822Z,95422.09
2022-08-09T06:20:13.317Z,95429.50
2022-08-09T06:22:45.672Z,95414.38
2022-08-09T06:25:12.480Z,95422.94
2022-08-09T06:27:51.690Z,95426.91
2022-08-09T06:30:18.654Z,95426.59
2022-08-09T06:33:13.680Z,95431.66
2022-08-09T06:35:56.520Z,95432.53
2022-08-09T06:38:19.214Z,95437.03
2022-08-09T06:40:46.076Z,95427.16
2022-08-09T06:43:13.628Z,95413.78
2022-08-09T06:46:05.558Z,95446.69
2022-08-09T06:48:30.389Z,95445.94
2022-08-09T06:50:57.418Z,95446.88
2022-08-09T06:53:24.872Z,95437.97
2022-08-09T06:55:52.151Z,95445.78
2022-08-09T06:58:46.247Z,95450.72
2022-08-09T07:01:06.204Z,95449.69
2022-08-09T07:03:39.534Z,95446.28
2022-08-09T07:06:19.981Z,95453.41
2022-08-09T07:08:49.576Z,95461.41
2022-08-09T07:11:17.595Z,95451.94
2022-08-09T07:14:04.382Z,95445.63
2022-08-09T07:16:42.831Z,95455.97
2022-08-09T07:19:18.615Z,95443.81
2022-08-09T07:21:55.802Z,95444.97
2022-08-09T07:24:32.129Z,95448.03
2022-08-09T07:27:10.936Z,95454.19
2022-08-09T07:29:56.848Z,95454.59
2022-08-09T07:32:32.617Z,95455.63
2022-08-09T07:35:02.834Z,95451.56
2022-08-09T07:37:43.726Z,95455.44
2022-08-09T07:40:20.518Z,95461.56
2022-08-09T07:42:56.028Z,95465.25
2022-08-09T07:45:39.518Z,95453.09
2022-08-09T07:48:28.479Z,95466.16
2022-08-09T07:51:10.327Z,95476.91
2022-08-09T07:54:05.204Z,95479.84
2022-08-09T07:56:33.642Z,95473.91
2022-08-09T07:59:00.354Z,95475.56
2022-08-09T08:01:33.044Z,95468.50
2022-08-09T08:04:00.455Z,95475.22
2022-08-09T08:06:31.944Z,95467.44
2022-08-09T08:09:04.586Z,95467.72
2022-08-09T08:12:11.582Z,95477.53
2022-08-09T08:14:18.423Z,95464.94
2022-08-09T08:17:00.961Z,95468.25
2022-08-09T08:19:34.322Z,95470.81
2022-08-09T08:22:01.701Z,95473.72
2022-08-09T08:24:34.165Z,95464.13
2022-08-09T08:27:16.492Z,95464.59
2022-08-09T08:29:48.467Z,95466.69
2022-08-09T08:32:24.335Z,95466.19
2022-08-09T08:35:02.962Z,95470.13
2022-08-09T08:37:41.327Z,95459.50
2022-08-09T08:40:16.897Z,95455.81
2022-08-09T08:42:47.201Z,95466.78
2022-08-09T08:45:16.589Z,95459.66
2022-08-09T08:47:45.029Z,95470.38
2022-08-09T08:50:17.961Z,95471.59
2022-08-09T08:53:00.078Z,95471.50
2022-08-09T08:55:28.290Z,95476.34
2022-08-09T08:57:58.997Z,95456.25
2022-08-09T09:00:34.636Z,95469.13
2022-08-09T09:03:08.266Z,95470.09
2022-08-09T09:05:58.883Z,95463.31
2022-08-09T09:08:30.198Z,95476.91
2022-08-09T09:10:59.486Z,95475.31
2022-08-09T09:13:41.641Z,95471.75
2022-08-09T09:16:12.698Z,95470.38
2022-08-09T09:18:45.817Z,95475.16
2022-08-09T09:21:15.582Z,95474.53
2022-08-09T09:23:50.009Z,95462.97
2022-08-09T09:26:26.167Z,95462.28
2022-08-09T09:29:04.128Z,95454.78
2022-08-09T09:32:03.848Z,95458.03
2022-08-09T09:34:24.012Z,95465.84
2022-08-09T09:36:56.241Z,95466.91
2022-08-09T09:39:25.561Z,95470.16
2022-08-09T09:42:22.326Z,95456.78
2022-08-09T09:44:57.481Z,95459.63
2022-08-09T09:47:24.525Z,95474.41
2022-08-09T09:50:13.797Z,95472.28
2022-08-09T09:52:53.618Z,95469.78
2022-08-09T09:55:31.334Z,95467.47
2022-08-09T09:58:17.010Z,95464.09
2022-08-09T10:00:59.452Z,95474.75
2022-08-09T10:03:42.799Z,95461.41
2022-08-09T10:06:11.712Z,95457.13
2022-08-09T10:08:54.130Z,95461.72
2022-08-09T10:12:00.043Z,95460.13
2022-08-09T10:14:26.090Z,95461.00
2022-08-09T10:17:00.329Z,95456.19
2022-08-09T10:19:38.728Z,95459.00
2022-08-09T10:22:06.966Z,95455.94
2022-08-09T10:24:36.144Z,95456.25
2022-08-09T10:27:03.437Z,95464.06
2022-08-09T10:30:43.642Z,95453.94
2022-08-09T10:32:50.398Z,95457.81
2022-08-09T10:35:13.303Z,95458.53
2022-08-09T10:37:40.089Z,95460.47
2022-08-09T10:40:12.122Z,95462.41
2022-08-09T10:42:56.006Z,95458.81
2022-08-09T10:45:23.441Z,95452.25
2022-08-09T10:48:26.183Z,95458.41
2022-08-09T10:51:09.727Z,95459.25
2022-08-09T10:53:59.560Z,95462.69
2022-08-09T10:56:33.689Z,95452.63
2022-08-09T10:59:23.370Z,95454.34
2022-08-09T11:03:13.390Z,95453.72
2022-08-09T11:05:25.287Z,95458.28
2022-08-09T11:07:59.012Z,95451.16
2022-08-09T11:10:54.617Z,95448.22
2022-08-09T11:13:50.511Z,95441.50
2022-08-09T11:16:37.741Z,95459.72
2022-08-09T11:19:07.864Z,95440.50
2022-08-09T11:21:55.171Z,95453.13
2022-08-09T11:25:03.657Z,95449.59
2022-08-09T11:28:04.567Z,95454.88
2022-08-09T11:30:32.991Z,95438.97
2022-08-09T11:33:06.497Z,95445.81
2022-08-09T11:36:01.018Z,95450.00
2022-08-09T11:38:33.166Z,95443.13
2022-08-09T11:41:16.082Z,95449.16
2022-08-09T11:43:47.080Z,95449.28
2022-08-09T11:46:26.462Z,95449.53
2022-08-09T11:49:01.026Z,95441.81
2022-08-09T11:53:03.499Z,95441.53
2022-08-09T11:55:34.726Z,95452.53
2022-08-09T11:58:14.353Z,95449.31
2022-08-09T12:00:52.953Z,95440.69
2022-08-09T12:03:54.895Z,95439.47
2022-08-09T12:06:26.547Z,95443.28
2022-08-09T12:08:55.754Z,95441.06
2022-08-09T12:11:25.533Z,95435.06
2022-08-09T12:14:09.949Z,95440.81
2022-08-09T12:16:42.894Z,95425.38
2022-08-09T12:19:13.165Z,95439.88
2022-08-09T12:21:48.618Z,95429.03
2022-08-09T12:24:23.735Z,95437.38
2022-08-09T12:29:12.528Z,95450.00
2022-08-09T12:29:44.620Z,95430.28
2022-08-09T12:32:26.851Z,95429.53
2022-08-09T12:34:59.742Z,95427.38
2022-08-09T12:37:49.642Z,95417.91
2022-08-09T12:40:19.039Z,95440.59
2022-08-09T12:42:50.552Z,95426.88
2022-08-09T12:45:34.898Z,95423.75
2022-08-09T12:48:20.441Z,95420.34
2022-08-09T12:50:57.894Z,95423.88
2022-08-09T12:53:38.446Z,95430.38
2022-08-09T12:56:37.190Z,95423.03
2022-08-09T12:59:13.990Z,95427.69
2022-08-09T13:01:49.864Z,95399.41
2022-08-09T13:04:36.994Z,95414.94
2022-08-09T13:07:13.901Z,95422.03
2022-08-09T13:09:52.734Z,95414.13
2022-08-09T13:12:22.621Z,95402.31
2022-08-09T13:14:53.820Z,95399.94
2022-08-09T13:17:25.671Z,95416.56
2022-08-09T13:20:18.663Z,95398.97
2022-08-09T13:23:01.647Z,95409.19
2022-08-09T13:25:52.995Z,95407.88
2022-08-09T13:28:33.950Z,95402.09
2022-08-09T13:32:12.383Z,95398.97
2022-08-09T13:33:57.360Z,95406.66
2022-08-09T13:36:42.463Z,95403.00
2022-08-09T13:41:17.596Z,95396.16
2022-08-09T13:42:11.898Z,95400.66
2022-08-09T13:44:40.410Z,95401.06
2022-08-09T13:47:33.660Z,95394.66
2022-08-09T13:50:03.006Z,95387.22
2022-08-09T13:52:35.869Z,95398.50
2022-08-09T13:55:07.351Z,95381.78
2022-08-09T13:57:39.742Z,95397.50
2022-08-09T14:00:18.619Z,95404.06
2022-08-09T14:03:16.590Z,95403.41
2022-08-09T14:05:57.428Z,95401.72
2022-08-09T14:08:22.384Z,95400.38
2022-08-09T14:10:52.341Z,95401.28
2022-08-09T14:13:27.940Z,95402.66
2022-08-09T14:16:11.430Z,95399.19
2022-08-09T14:18:45.117Z,95393.59
2022-08-09T14:21:17.556Z,95393.25
2022-08-09T14:23:55.372Z,95404.56
2022-08-09T14:26:32.656Z,95400.69
2022-08-09T14:29:07.849Z,95397.16
2022-08-09T14:31:53.851Z,95400.25
2022-08-09T14:34:30.911Z,95389.69
2022-08-09T14:37:00.460Z,95398.88
2022-08-09T14:39:47.254Z,95393.63
2022-08-09T14:42:30.565Z,95386.34
2022-08-09T14:46:39.672Z,95395.84
2022-08-09T14:47:59.124Z,95388.13
2022-08-09T14:50:27.942Z,95390.91
2022-08-09T14:52:54.645Z,95388.59
2022-08-09T14:55:21.445Z,95376.38
2022-08-09T14:57:48.763Z,95381.75
2022-08-09T15:00:16.225Z,95387.25
2022-08-09T15:02:42.709Z,95369.81
2022-08-09T15:05:16.077Z,95386.25
2022-08-09T15:07:45.565Z,95380.84
2022-08-09T15:10:25.026Z,95380.09
2022-08-09T15:12:53.220Z,95380.31
2022-08-09T15:15:20.282Z,95375.28
2022-08-09T15:17:52.390Z,95377.63
2022-08-09T15:21:57.605Z,95365.06
2022-08-09T15:23:56.254Z,95367.03
2022-08-09T15:25:55.584Z,95372.75
2022-08-09T15:28:27.458Z,95371.16
2022-08-09T15:31:10.306Z,95379.53
2022-08-09T15:34:17.463Z,95379.59
2022-08-09T15:36:30.419Z,95370.03
2022-08-09T15:39:00.799Z,95362.34
2022-08-09T15:41:31.187Z,95351.94
2022-08-09T15:44:00.532Z,95367.63
2022-08-09T15:46:34.473Z,95365.38
2022-08-09T15:49:22.233Z,95369.84
2022-08-09T15:52:04.461Z,95372.53
2022-08-09T15:54:49.633Z,95363.56
2022-08-09T15:57:34.596Z,95364.41
2022-08-09T16:00:09.277Z,95361.94
2022-08-09T16:02:40.506Z,95357.22
2022-08-09T16:05:10.467Z,95365.72
2022-08-09T16:07:39.006Z,95356.19
2022-08-09T16:10:17.067Z,95358.78
2022-08-09T16:12:55.320Z,95367.38
2022-08-09T16:16:11.678Z,95358.97
2022-08-09T16:18:08.989Z,95350.88
2022-08-09T16:20:37.186Z,95367.03
2022-08-09T16:23:05.624Z,95347.28
2022-08-09T16:25:40.574Z,95352.75
2022-08-09T16:28:07.760Z,95359.56
2022-08-09T16:30:44.489Z,95343.41
2022-08-09T16:33:11.695Z,95332.63
2022-08-09T16:35:57.143Z,95347.97
2022-08-09T16:38:26.563Z,95348.97
2022-08-09T16:40:53.475Z,95355.72
2022-08-09T16:43:22.069Z,95357.94
2022-08-09T16:45:53.627Z,95359.59
2022-08-09T16:48:41.276Z,95355.94
2022-08-09T16:51:13.467Z,95349.81
2022-08-09T16:54:02.414Z,95359.38
2022-08-09T16:56:30.541Z,95355.94
2022-08-09T16:58:57.463Z,95360.25
2022-08-09T17:01:24.856Z,95362.75
2022-08-09T17:03:51.580Z,95358.78
2022-08-09T17:06:29.054Z,95364.38
2022-08-09T17:09:12.090Z,95361.00
2022-08-09T17:11:44.648Z,95360.19
2022-08-09T17:14:25.881Z,95366.63
2022-08-09T17:16:55.597Z,95361.34
2022-08-09T17:19:22.169Z,95367.56
2022-08-09T17:21:55.536Z,95368.50
2022-08-09T17:24:30.649Z,95369.94
2022-08-09T17:26:58.525Z,95372.72
2022-08-09T17:29:31.851Z,95384.03
2022-08-09T17:32:04.929Z,95380.81
2022-08-09T17:35:03.852Z,95380.16
2022-08-09T17:37:19.881Z,95365.75
2022-08-09T17:39:52.125Z,95371.41
2022-08-09T17:42:55.148Z,95377.56
2022-08-09T17:45:15.835Z,95386.50
2022-08-09T17:47:54.806Z,95384.66
2022-08-09T17:50:36.245Z,95385.44
2022-08-09T17:53:19.329Z,95396.88
2022-08-09T17:55:49.718Z,95398.63
2022-08-09T17:58:19.035Z,95387.56
2022-08-09T18:00:47.942Z,95397.22
2022-08-09T18:03:14.993Z,95393.22
2022-08-09T18:05:44.711Z,95388.75
2022-08-09T18:08:13.399Z,95403.13
2022-08-09T18:10:40.005Z,95403.13
2022-08-09T18:13:43.388Z,95404.88
2022-08-09T18:16:07.667Z,95403.50
2022-08-09T18:18:43.310Z,95409.81
2022-08-09T18:21:21.511Z,95416.22
2022-08-09T18:24:10.729Z,95400.53
2022-08-09T18:26:38.077Z,95419.72
2022-08-09T18:30:35.021Z,95414.00
2022-08-09T18:31:56.112Z,95424.06
2022-08-09T18:34:23.963Z,95418.63
2022-08-09T18:36:50.687Z,95413.53
2022-08-09T18:39:22.209Z,95411.94
2022-08-09T18:41:53.150Z,95409.78
2022-08-09T18:44:22.893Z,95417.41
2022-08-09T18:47:04.927Z,95425.38
2022-08-09T18:49:43.841Z,95427.22
2022-08-09T18:52:15.889Z,95430.19
2022-08-09T18:54:52.272Z,95434.16
2022-08-09T18:57:19.932Z,95441.41
2022-08-09T18:59:56.374Z,95441.28
2022-08-09T19:02:31.913Z,95429.81
2022-08-09T19:05:04.145Z,95446.50
2022-08-09T19:07:59.039Z,95443.56
2022-08-09T19:10:29.314Z,95450.03
2022-08-09T19:13:20.114Z,95441.72
2022-08-09T19:15:49.935Z,95452.19
2022-08-09T19:18:33.326Z,95448.75
2022-08-09T19:21:09.615Z,95458.41
2022-08-09T19:24:33.205Z,95456.94
2022-08-09T19:26:31.201Z,95462.50
2022-08-09T19:29:01.773Z,95454.41
2022-08-09T19:31:30.447Z,95451.00
2022-08-09T19:34:10.246Z,95458.75
2022-08-09T19:36:50.380Z,95441.78
2022-08-09T19:39:17.171Z,95455.91
2022-08-09T19:41:47.454Z,95452.44
2022-08-09T19:44:15.335Z,95462.34
2022-08-09T19:46:50.603Z,95462.22
2022-08-09T19:50:09.906Z,95455.13
2022-08-09T19:52:07.957Z,95459.47
2022-08-09T19:54:34.878Z,95452.25
2022-08-09T19:57:02.153Z,95470.84
2022-08-09T19:59:58.019Z,95464.91
2022-08-09T20:04:08.389Z,95473.94
2022-08-09T20:05:10.172Z,95474.88
2022-08-09T20:08:00.139Z,95461.53
2022-08-09T20:10:36.822Z,95460.22
2022-08-09T20:13:06.126Z,95460.06
2022-08-09T20:16:33.707Z,95474.78
2022-08-09T20:18:22.147Z,95472.47
2022-08-09T20:20:50.421Z,95470.16
2022-08-09T20:23:19.543Z,95473.97
2022-08-09T20:25:52.370Z,95467.66
2022-08-09T20:28:34.270Z,95478.03
2022-08-09T20:31:02.646Z,95458.91
2022-08-09T20:33:40.926Z,95457.47
2022-08-09T20:36:08.611Z,95469.22
2022-08-09T20:38:50.412Z,95460.16
2022-08-09T20:41:32.030Z,95476.94
2022-08-09T20:44:01.806Z,95477.34
2022-08-09T20:46:42.031Z,95460.63
2022-08-09T20:49:10.419Z,95477.41
2022-08-09T20:51:41.118Z,95476.91
2022-08-09T20:54:08.438Z,95450.84
2022-08-09T20:56:39.476Z,95450.84
2022-08-09T20:59:07.799Z,95470.78
2022-08-09T21:01:50.367Z,95476.91
2022-08-09T21:05:54.546Z,95482.41
2022-08-09T21:07:11.498Z,95470.88
2022-08-09T21:09:46.029Z,95465.25
2022-08-09T21:15:12.877Z,95469.59
2022-08-09T21:18:23.068Z,95466.41
2022-08-09T21:20:29.947Z,95462.91
2022-08-09T21:22:57.503Z,95480.41
2022-08-09T21:25:44.399Z,95478.97
2022-08-09T21:28:33.352Z,95467.81
2022-08-09T21:31:02.226Z,95473.31
2022-08-09T21:33:49.463Z,95469.31
2022-08-09T21:36:17.716Z,95485.00
2022-08-09T21:38:45.444Z,95462.75
2022-08-09T21:41:17.992Z,95474.50
2022-08-09T21:43:56.641Z,95472.19
2022-08-09T21:46:24.545Z,95475.97
2022-08-09T21:48:51.974Z,95462.44
2022-08-09T21:51:35.980Z,95474.56
2022-08-09T21:54:06.131Z,95451.47
2022-08-09T21:56:42.948Z,95479.25
2022-08-09T21:59:11.468Z,95473.91
2022-08-09T22:01:58.933Z,95476.25
2022-08-09T22:04:37.554Z,95481.22
2022-08-09T22:07:23.311Z,95476.13
2022-08-09T22:10:01.198Z,95482.16
2022-08-09T22:12:32.708Z,95482.56
2022-08-09T22:15:00.072Z,95488.41
2022-08-09T22:17:32.081Z,95486.09
2022-08-09T22:20:01.031Z,95482.94
2022-08-09T22:22:28.789Z,95476.56
2022-08-09T22:26:08.691Z,95482.78
2022-08-09T22:27:42.285Z,95494.50
2022-08-09T22:30:09.377Z,95482.25
2022-08-09T22:32:35.966Z,95479.38
2022-08-09T22:35:06.621Z,95481.69
2022-08-09T22:38:06.669Z,95484.56
2022-08-09T22:40:34.655Z,95471.94
2022-08-09T22:43:01.420Z,95485.09
2022-08-09T22:48:12.379Z,95474.44
2022-08-09T22:48:34.410Z,95460.72
2022-08-09T22:51:01.231Z,95466.94
2022-08-09T22:53:58.186Z,95471.25
2022-08-09T22:56:33.797Z,95455.88
2022-08-09T22:59:05.855Z,95443.47
2022-08-09T23:01:48.896Z,95455.72
2022-08-09T23:04:15.477Z,95460.72
2022-08-09T23:07:02.369Z,95458.03
2022-08-09T23:09:28.980Z,95458.75
2022-08-09T23:11:55.579Z,95437.03
2022-08-09T23:14:36.270Z,95454.47
2022-08-09T23:17:08.609Z,95445.56
2022-08-09T23:20:02.458Z,95450.56
2022-08-09T23:22:21.760Z,95444.81
2022-08-09T23:24:48.836Z,95446.06
2022-08-09T23:27:15.811Z,95442.88
2022-08-09T23:29:42.335Z,95435.88
2022-08-09T23:32:08.944Z,95441.91
2022-08-09T23:34:36.658Z,95451.88
2022-08-09T23:37:04.639Z,95445.47
2022-08-09T23:39:31.211Z,95441.91
2022-08-09T23:41:57.922Z,95434.38
2022-08-09T23:44:27.362Z,95449.00
2022-08-09T23:46:57.276Z,95450.03
2022-08-09T23:49:25.556Z,95437.22
2022-08-09T23:51:53.312Z,95440.06
2022-08-09T23:54:20.585Z,95431.31
2022-08-09T23:56:53.920Z,95440.78
2022-08-09T23:59:23.029Z,95431.81
